Impacts TAF Board INFO
FOR SITUATIONAL AWARENESS. NOT TO BE USED FOR FLIGHT PLANNING PURPOSES.
IDs:

KNEW - New Orleans/Lakefron, LA, US

Issued at 2322 UTC 22 Jun 2018
Updated at 0032 UTC 23 Jun 2018
Potential Impact None Slight Moderate High
Time2353Z 23/01Z 23/02Z 23/03Z 23/04Z 23/05Z 23/06Z 23/07Z 23/08Z 23/09Z 23/10Z 23/11Z 23/12Z 23/13Z>>
Type OBS PRVL PRVL PRVL PRVL PRVL PRVL PRVL PRVL PRVL PRVL PRVL PRVL PRVL
VIS 10 >6 >6 >6 >6 >6 >6 >6 >6 >6 >6 >6 >6 >6
CIG -- -- -- -- -- -- -- -- -- -- -- 30 30 45
Cover CLR FEW FEW FEW FEW FEW FEW SCT SCT SCT SCT BKN BKN BKN
FltCat VFR VFR VFR VFR VFR VFR VFR VFR VFR VFR VFR MVFR MVFR VFR
WX -- -- -- -- -- -- -- -- -- -- -- -- -- --
WDir 230 230 230 230 230 230 230 220 220 220 220 230 230 230
WSpd 14 10 10 10 10 10 10 10 10 10 10 8 8 8
WGst -- -- -- -- -- -- -- -- -- -- -- -- -- --

Raw TAF
KNEW 222322Z 2300/2324 23010KT P6SM FEW070 FEW250
  FM230700 22010KT P6SM FEW045 SCT070
  FM231100 23008KT P6SM SCT025 BKN030
  FM231300 23008KT P6SM SCT020 BKN045
  FM231800 26008KT P6SM FEW035 SCT080
  FM232200 21006KT P6SM FEW040 SCT070


Raw METAR
KNEW 222353Z 23014KT 10SM CLR 31/22 A2986 RMK AO2 SLP103 T03110222 10333 20311 58008
KNEW 222253Z 23013KT 10SM CLR 32/22 A2986 RMK AO2 SLP106 T03220222
KNEW 222153Z 22012KT 10SM SCT046 32/23 A2987 RMK AO2 SLP109 T03220228

METAR Board

FOR SITUATIONAL AWARENESS. NOT TO BE USED FOR FLIGHT PLANNING PURPOSES.